Fairmount Heights, Maryland
Current Conditions -  °F | °C
As of 7:58 AM on Friday 31 Oct 2014 (Local Time) from KADW Reporting Station
Broken Clouds Broken Clouds  
Wind Chill: 40°   Ceiling: 5500
Heat Index: 40°   Visibility: 10mi
Dew Point: 35°   Wind: 2mph
Humidity: 82%   Direction: 350°N
Pressure: 29.99"   Gusts: NA
Location:  38.8854°N, 76.8965°W
Report Text: KADW 311158Z AUTO 35002KT 10SM BKN055 05/02 A2999 RMK AO2 SLP163 T00460017 10053 20022 57005 $
Loading
Personal Weather Stations






























Interactive Weather Map New forecast layout! Learn more

10-Day Weather Forecast

Advertisements
Track Severe Weather on mobile